Aérodrome de Castelnaudary-Villeneuve

LFMW · Aude, Occitanie, 法国

罗盘
风向 的 风向 070° Aérodrome de Castelnaudary-Villeneuve 11/29
风: 3 kt, 1 beaufort

2 kt

2 kt
改变
0 2.000 4.000 6.000 8.000 10.000
OVC 6.600 ft
METAR LFMP 071600Z AUTO 07003KT 9999 OVC066 13/08 Q1012 NOSIG

METAR Aérodrome de Castelnaudary-Villeneuve - LFMW

Aérodrome de Castelnaudary-Villeneuve是,法国中的小机场。 该机场有一条跑道: 11/29. 该领域的国际民航组织标志是LFMW.

这份报告是针对2022年12月7日 17:00, 当地时间在Perpignan-Rivesaltes (Llabanère) Airport进行的。

机场观察

风向为070°,速度为3 kt。

可见度为10 km 或者更多。

有乌云密布在6.600 ft的高度。 破损或更高的上限为6.600 ft。

温度和风寒是13 °C。 露点为8 °C,相对湿度为72%。 海平面上的气压为1012 hPa (QNH)。

白天

今天,太阳从08:10升起,在17:16降落。 这适用于Aérodrome de Castelnaudary-Villeneuve,世界夏令时可能有所不同。 当地时间与世界标准时间之间的时差为+1 小时。 当前,没有夏令时有效。

公司介绍

在这个机场,你可以找到飞行俱乐部。 这个机场上的公司有Aéroclub J. Doudies Castelnaudary 和 Aéro-Club des Personnels de l'ENAC de Castelnaudar。

体会

到Vliegles.nl去找飞行课程,跳伞和其他飞行体验。 浏览页面,了解Aérodrome de Castelnaudary-Villeneuve附近所有可用的活动。 你也可以使用搜索功能来寻找你所在地附近的特定飞行课程、跳伞或其他飞行体验。

跑道

Id 标题 侧风 逆风 侧风 %
11/29 110°-290° 2 kt 2 kt 64 %

逆风成分最大的方向会被突出显示,并用于横风计算。 这并不一定意味着这个方向在使用。

乌云

6.600 ft OVC 乌云密布

温度 & 天气

温度 13 °C
露点 8 °C
相对湿度 72%
Kp-index 3 (0-9)

白天

日出
08:05 (14:43)
中午
12:39
日落
17:14

小工具

你想在你的网站上有一个关于Aérodrome de Castelnaudary-Villeneuve的当前航空天气(METAR)的小部件吗?

显示HTML代码

我们和第三方通过cookies跟踪您在我们网站上的互联网行为。如果你继续,我们认为你同意我们的饼干政策